sensor_id;sensor_type;location;lat;lon;timestamp;P1;durP1;ratioP1;P2;durP2;ratioP2
70367;SDS011;57789;53.868;10.728;2023-04-15T00:01:23;11.90;;;5.73;;
70367;SDS011;57789;53.868;10.728;2023-04-15T00:03:53;8.40;;;6.37;;
70367;SDS011;57789;53.868;10.728;2023-04-15T00:06:22;7.47;;;5.90;;
70367;SDS011;57789;53.868;10.728;2023-04-15T00:08:48;9.67;;;6.90;;
70367;SDS011;57789;53.868;10.728;2023-04-15T00:11:15;10.07;;;6.30;;
70367;SDS011;57789;53.868;10.728;2023-04-15T00:13:41;8.70;;;6.40;;
70367;SDS011;57789;53.868;10.728;2023-04-15T00:16:08;9.70;;;6.93;;
70367;SDS011;57789;53.868;10.728;2023-04-15T00:18:34;9.13;;;6.93;;
70367;SDS011;57789;53.868;10.728;2023-04-15T00:21:01;7.87;;;6.60;;
70367;SDS011;57789;53.868;10.728;2023-04-15T00:23:27;11.30;;;6.87;;
70367;SDS011;57789;53.868;10.728;2023-04-15T00:25:53;12.13;;;7.67;;
70367;SDS011;57789;53.868;10.728;2023-04-15T00:28:19;10.27;;;7.07;;
70367;SDS011;57789;53.868;10.728;2023-04-15T00:30:45;10.30;;;7.70;;
70367;SDS011;57789;53.868;10.728;2023-04-15T00:33:12;11.43;;;8.30;;
70367;SDS011;57789;53.868;10.728;2023-04-15T00:35:38;12.70;;;8.17;;
70367;SDS011;57789;53.868;10.728;2023-04-15T00:38:05;13.00;;;7.67;;
70367;SDS011;57789;53.868;10.728;2023-04-15T00:40:34;13.83;;;9.07;;
70367;SDS011;57789;53.868;10.728;2023-04-15T00:43:00;15.40;;;8.47;;
70367;SDS011;57789;53.868;10.728;2023-04-15T00:45:26;13.47;;;8.37;;
70367;SDS011;57789;53.868;10.728;2023-04-15T00:47:52;13.60;;;8.73;;
70367;SDS011;57789;53.868;10.728;2023-04-15T00:50:18;16.20;;;9.30;;
70367;SDS011;57789;53.868;10.728;2023-04-15T00:52:44;18.47;;;10.17;;
70367;SDS011;57789;53.868;10.728;2023-04-15T00:55:10;14.70;;;9.00;;
70367;SDS011;57789;53.868;10.728;2023-04-15T00:57:36;16.60;;;9.70;;
70367;SDS011;57789;53.868;10.728;2023-04-15T01:00:03;20.90;;;10.57;;
70367;SDS011;57789;53.868;10.728;2023-04-15T01:02:32;17.30;;;10.80;;
70367;SDS011;57789;53.868;10.728;2023-04-15T01:04:59;22.93;;;11.57;;
70367;SDS011;57789;53.868;10.728;2023-04-15T01:07:24;21.73;;;11.47;;
70367;SDS011;57789;53.868;10.728;2023-04-15T01:09:51;17.97;;;10.63;;
70367;SDS011;57789;53.868;10.728;2023-04-15T01:12:17;18.90;;;11.00;;
70367;SDS011;57789;53.868;10.728;2023-04-15T01:14:44;19.53;;;12.07;;
70367;SDS011;57789;53.868;10.728;2023-04-15T01:17:10;21.67;;;12.23;;
70367;SDS011;57789;53.868;10.728;2023-04-15T01:19:37;20.87;;;12.90;;
70367;SDS011;57789;53.868;10.728;2023-04-15T01:22:03;21.73;;;13.27;;
70367;SDS011;57789;53.868;10.728;2023-04-15T01:24:30;25.30;;;14.77;;
70367;SDS011;57789;53.868;10.728;2023-04-15T01:26:57;27.60;;;16.47;;
70367;SDS011;57789;53.868;10.728;2023-04-15T01:29:23;25.63;;;14.10;;
70367;SDS011;57789;53.868;10.728;2023-04-15T01:31:52;26.83;;;17.17;;
70367;SDS011;57789;53.868;10.728;2023-04-15T01:34:19;28.33;;;17.43;;
70367;SDS011;57789;53.868;10.728;2023-04-15T01:36:46;37.50;;;21.70;;
70367;SDS011;57789;53.868;10.728;2023-04-15T01:39:12;48.13;;;19.30;;
70367;SDS011;57789;53.868;10.728;2023-04-15T01:41:38;58.70;;;23.80;;
70367;SDS011;57789;53.868;10.728;2023-04-15T01:44:05;51.50;;;23.07;;
70367;SDS011;57789;53.868;10.728;2023-04-15T01:46:31;46.73;;;24.30;;
70367;SDS011;57789;53.868;10.728;2023-04-15T01:48:57;58.13;;;24.47;;
70367;SDS011;57789;53.868;10.728;2023-04-15T01:51:22;64.60;;;25.00;;
70367;SDS011;57789;53.868;10.728;2023-04-15T01:53:48;74.63;;;23.63;;
70367;SDS011;57789;53.868;10.728;2023-04-15T01:56:14;43.93;;;23.50;;
70367;SDS011;57789;53.868;10.728;2023-04-15T01:58:40;53.43;;;23.67;;
70367;SDS011;57789;53.868;10.728;2023-04-15T02:01:05;70.40;;;24.90;;
70367;SDS011;57789;53.868;10.728;2023-04-15T02:03:31;40.97;;;22.60;;
70367;SDS011;57789;53.868;10.728;2023-04-15T02:05:57;38.90;;;23.37;;
70367;SDS011;57789;53.868;10.728;2023-04-15T02:08:23;44.53;;;24.20;;
70367;SDS011;57789;53.868;10.728;2023-04-15T02:10:48;61.83;;;25.63;;
70367;SDS011;57789;53.868;10.728;2023-04-15T02:13:14;49.80;;;25.53;;
70367;SDS011;57789;53.868;10.728;2023-04-15T02:15:45;67.80;;;25.13;;
70367;SDS011;57789;53.868;10.728;2023-04-15T02:18:12;71.73;;;25.60;;
70367;SDS011;57789;53.868;10.728;2023-04-15T02:20:37;51.17;;;24.50;;
70367;SDS011;57789;53.868;10.728;2023-04-15T02:23:03;39.60;;;23.73;;
70367;SDS011;57789;53.868;10.728;2023-04-15T02:25:31;73.83;;;25.53;;
70367;SDS011;57789;53.868;10.728;2023-04-15T02:27:57;71.77;;;26.57;;
70367;SDS011;57789;53.868;10.728;2023-04-15T02:30:22;90.30;;;25.43;;
70367;SDS011;57789;53.868;10.728;2023-04-15T02:32:49;82.90;;;25.17;;
70367;SDS011;57789;53.868;10.728;2023-04-15T02:35:15;64.03;;;25.63;;
70367;SDS011;57789;53.868;10.728;2023-04-15T02:37:43;86.07;;;26.13;;
70367;SDS011;57789;53.868;10.728;2023-04-15T02:40:10;53.40;;;26.70;;
70367;SDS011;57789;53.868;10.728;2023-04-15T02:42:37;54.53;;;24.83;;
70367;SDS011;57789;53.868;10.728;2023-04-15T02:45:03;43.23;;;25.53;;
70367;SDS011;57789;53.868;10.728;2023-04-15T02:47:30;44.27;;;25.60;;
70367;SDS011;57789;53.868;10.728;2023-04-15T02:49:56;40.67;;;24.97;;
70367;SDS011;57789;53.868;10.728;2023-04-15T02:52:24;66.33;;;25.83;;
70367;SDS011;57789;53.868;10.728;2023-04-15T02:54:50;53.43;;;25.60;;
70367;SDS011;57789;53.868;10.728;2023-04-15T02:57:16;55.03;;;26.70;;
70367;SDS011;57789;53.868;10.728;2023-04-15T02:59:41;58.10;;;25.30;;
70367;SDS011;57789;53.868;10.728;2023-04-15T03:02:07;44.57;;;26.27;;
70367;SDS011;57789;53.868;10.728;2023-04-15T03:04:33;63.87;;;25.20;;
70367;SDS011;57789;53.868;10.728;2023-04-15T03:06:59;50.60;;;24.90;;
70367;SDS011;57789;53.868;10.728;2023-04-15T03:09:25;67.20;;;27.20;;
70367;SDS011;57789;53.868;10.728;2023-04-15T03:11:51;48.87;;;24.97;;
70367;SDS011;57789;53.868;10.728;2023-04-15T03:14:18;67.90;;;25.60;;
70367;SDS011;57789;53.868;10.728;2023-04-15T03:16:44;46.00;;;26.87;;
70367;SDS011;57789;53.868;10.728;2023-04-15T03:19:10;60.53;;;26.87;;
70367;SDS011;57789;53.868;10.728;2023-04-15T03:21:36;44.40;;;26.50;;
70367;SDS011;57789;53.868;10.728;2023-04-15T03:24:01;44.30;;;23.70;;
70367;SDS011;57789;53.868;10.728;2023-04-15T03:26:28;68.90;;;24.50;;
70367;SDS011;57789;53.868;10.728;2023-04-15T03:28:55;49.00;;;27.00;;
70367;SDS011;57789;53.868;10.728;2023-04-15T03:31:21;61.90;;;28.30;;
70367;SDS011;57789;53.868;10.728;2023-04-15T03:33:47;59.47;;;26.70;;
70367;SDS011;57789;53.868;10.728;2023-04-15T03:36:13;62.40;;;26.10;;
70367;SDS011;57789;53.868;10.728;2023-04-15T03:38:39;45.43;;;26.27;;
70367;SDS011;57789;53.868;10.728;2023-04-15T03:41:04;66.77;;;25.63;;
70367;SDS011;57789;53.868;10.728;2023-04-15T03:43:31;98.80;;;27.43;;
70367;SDS011;57789;53.868;10.728;2023-04-15T03:45:56;112.20;;;28.23;;
70367;SDS011;57789;53.868;10.728;2023-04-15T03:48:22;46.13;;;26.20;;
70367;SDS011;57789;53.868;10.728;2023-04-15T03:50:48;50.17;;;26.10;;
70367;SDS011;57789;53.868;10.728;2023-04-15T03:53:14;54.63;;;26.33;;
70367;SDS011;57789;53.868;10.728;2023-04-15T03:55:40;45.60;;;26.33;;
70367;SDS011;57789;53.868;10.728;2023-04-15T03:58:05;44.70;;;27.57;;
70367;SDS011;57789;53.868;10.728;2023-04-15T04:00:31;47.87;;;25.20;;
70367;SDS011;57789;53.868;10.728;2023-04-15T04:02:57;45.93;;;26.47;;
70367;SDS011;57789;53.868;10.728;2023-04-15T04:05:23;46.57;;;28.30;;
70367;SDS011;57789;53.868;10.728;2023-04-15T04:07:48;43.57;;;26.30;;
70367;SDS011;57789;53.868;10.728;2023-04-15T04:10:14;45.60;;;26.30;;
70367;SDS011;57789;53.868;10.728;2023-04-15T04:12:40;45.43;;;27.80;;
70367;SDS011;57789;53.868;10.728;2023-04-15T04:15:06;47.00;;;26.47;;
70367;SDS011;57789;53.868;10.728;2023-04-15T04:17:32;45.67;;;28.57;;
70367;SDS011;57789;53.868;10.728;2023-04-15T04:19:58;47.13;;;27.93;;
70367;SDS011;57789;53.868;10.728;2023-04-15T04:22:24;55.67;;;27.17;;
70367;SDS011;57789;53.868;10.728;2023-04-15T04:24:50;52.07;;;28.83;;
70367;SDS011;57789;53.868;10.728;2023-04-15T04:27:16;48.37;;;27.37;;
70367;SDS011;57789;53.868;10.728;2023-04-15T04:29:41;47.77;;;27.57;;
70367;SDS011;57789;53.868;10.728;2023-04-15T04:32:07;53.93;;;28.40;;
70367;SDS011;57789;53.868;10.728;2023-04-15T04:34:33;58.20;;;30.17;;
70367;SDS011;57789;53.868;10.728;2023-04-15T04:36:59;50.60;;;29.50;;
70367;SDS011;57789;53.868;10.728;2023-04-15T04:39:24;57.33;;;32.57;;
70367;SDS011;57789;53.868;10.728;2023-04-15T04:41:50;51.83;;;28.57;;
70367;SDS011;57789;53.868;10.728;2023-04-15T04:44:22;50.13;;;29.33;;
70367;SDS011;57789;53.868;10.728;2023-04-15T04:46:47;55.13;;;28.27;;
70367;SDS011;57789;53.868;10.728;2023-04-15T04:49:13;56.80;;;30.57;;
70367;SDS011;57789;53.868;10.728;2023-04-15T04:51:38;57.03;;;31.47;;
70367;SDS011;57789;53.868;10.728;2023-04-15T04:54:04;54.30;;;29.00;;
70367;SDS011;57789;53.868;10.728;2023-04-15T04:56:30;57.00;;;29.70;;
70367;SDS011;57789;53.868;10.728;2023-04-15T04:58:56;54.57;;;29.70;;
70367;SDS011;57789;53.868;10.728;2023-04-15T05:01:21;58.17;;;30.47;;
70367;SDS011;57789;53.868;10.728;2023-04-15T05:03:47;52.47;;;28.90;;
70367;SDS011;57789;53.868;10.728;2023-04-15T05:06:12;54.27;;;27.63;;
70367;SDS011;57789;53.868;10.728;2023-04-15T05:08:38;55.77;;;28.60;;
70367;SDS011;57789;53.868;10.728;2023-04-15T05:11:05;52.47;;;28.73;;
70367;SDS011;57789;53.868;10.728;2023-04-15T05:13:31;54.60;;;28.13;;
70367;SDS011;57789;53.868;10.728;2023-04-15T05:15:57;53.60;;;29.30;;
70367;SDS011;57789;53.868;10.728;2023-04-15T05:18:22;57.10;;;30.80;;
70367;SDS011;57789;53.868;10.728;2023-04-15T05:20:48;56.40;;;31.90;;
70367;SDS011;57789;53.868;10.728;2023-04-15T05:23:14;51.30;;;28.63;;
70367;SDS011;57789;53.868;10.728;2023-04-15T05:25:41;58.30;;;29.53;;
70367;SDS011;57789;53.868;10.728;2023-04-15T05:28:07;51.13;;;30.30;;
70367;SDS011;57789;53.868;10.728;2023-04-15T05:30:33;57.80;;;30.87;;
70367;SDS011;57789;53.868;10.728;2023-04-15T05:32:58;56.27;;;31.93;;
70367;SDS011;57789;53.868;10.728;2023-04-15T05:35:24;59.17;;;32.37;;
70367;SDS011;57789;53.868;10.728;2023-04-15T05:37:51;63.37;;;33.73;;
70367;SDS011;57789;53.868;10.728;2023-04-15T05:40:16;56.27;;;30.37;;
70367;SDS011;57789;53.868;10.728;2023-04-15T05:42:42;52.90;;;29.73;;
70367;SDS011;57789;53.868;10.728;2023-04-15T05:45:08;61.63;;;30.90;;
70367;SDS011;57789;53.868;10.728;2023-04-15T05:47:35;66.70;;;30.60;;
70367;SDS011;57789;53.868;10.728;2023-04-15T05:50:01;58.30;;;30.97;;
70367;SDS011;57789;53.868;10.728;2023-04-15T05:52:28;58.43;;;30.37;;
70367;SDS011;57789;53.868;10.728;2023-04-15T05:54:53;57.23;;;31.27;;
70367;SDS011;57789;53.868;10.728;2023-04-15T05:57:19;65.97;;;29.50;;
70367;SDS011;57789;53.868;10.728;2023-04-15T05:59:45;56.27;;;28.70;;
70367;SDS011;57789;53.868;10.728;2023-04-15T06:02:11;62.03;;;31.03;;
70367;SDS011;57789;53.868;10.728;2023-04-15T06:04:37;57.10;;;30.20;;
70367;SDS011;57789;53.868;10.728;2023-04-15T06:07:03;54.87;;;29.40;;
70367;SDS011;57789;53.868;10.728;2023-04-15T06:09:29;59.50;;;27.90;;
70367;SDS011;57789;53.868;10.728;2023-04-15T06:11:55;62.27;;;30.00;;
70367;SDS011;57789;53.868;10.728;2023-04-15T06:14:21;59.63;;;28.70;;
70367;SDS011;57789;53.868;10.728;2023-04-15T06:16:47;52.90;;;28.93;;
70367;SDS011;57789;53.868;10.728;2023-04-15T06:19:13;58.73;;;28.30;;
70367;SDS011;57789;53.868;10.728;2023-04-15T06:21:39;62.17;;;30.20;;
70367;SDS011;57789;53.868;10.728;2023-04-15T06:24:06;64.47;;;28.60;;
70367;SDS011;57789;53.868;10.728;2023-04-15T06:26:31;56.63;;;26.87;;
70367;SDS011;57789;53.868;10.728;2023-04-15T06:28:57;54.43;;;28.53;;
70367;SDS011;57789;53.868;10.728;2023-04-15T06:31:23;59.57;;;27.10;;
70367;SDS011;57789;53.868;10.728;2023-04-15T06:33:48;52.80;;;28.87;;
70367;SDS011;57789;53.868;10.728;2023-04-15T06:36:14;54.57;;;28.10;;
70367;SDS011;57789;53.868;10.728;2023-04-15T06:38:40;50.60;;;26.70;;
70367;SDS011;57789;53.868;10.728;2023-04-15T06:41:09;48.00;;;27.10;;
70367;SDS011;57789;53.868;10.728;2023-04-15T06:43:35;50.13;;;26.53;;
70367;SDS011;57789;53.868;10.728;2023-04-15T06:46:00;53.20;;;25.77;;
70367;SDS011;57789;53.868;10.728;2023-04-15T06:48:26;57.47;;;26.33;;
70367;SDS011;57789;53.868;10.728;2023-04-15T06:50:53;51.00;;;27.87;;
70367;SDS011;57789;53.868;10.728;2023-04-15T06:53:19;50.43;;;24.10;;
70367;SDS011;57789;53.868;10.728;2023-04-15T06:55:46;46.37;;;24.37;;
70367;SDS011;57789;53.868;10.728;2023-04-15T06:58:11;47.60;;;25.50;;
70367;SDS011;57789;53.868;10.728;2023-04-15T07:00:37;44.57;;;25.60;;
70367;SDS011;57789;53.868;10.728;2023-04-15T07:03:03;45.43;;;24.20;;
70367;SDS011;57789;53.868;10.728;2023-04-15T07:05:29;47.27;;;23.07;;
70367;SDS011;57789;53.868;10.728;2023-04-15T07:07:56;47.50;;;25.13;;
70367;SDS011;57789;53.868;10.728;2023-04-15T07:10:22;45.23;;;23.50;;
70367;SDS011;57789;53.868;10.728;2023-04-15T07:12:48;60.23;;;27.10;;
70367;SDS011;57789;53.868;10.728;2023-04-15T07:15:16;44.80;;;24.07;;
70367;SDS011;57789;53.868;10.728;2023-04-15T07:17:42;43.03;;;23.63;;
70367;SDS011;57789;53.868;10.728;2023-04-15T07:20:08;46.23;;;23.37;;
70367;SDS011;57789;53.868;10.728;2023-04-15T07:22:34;46.63;;;23.57;;
70367;SDS011;57789;53.868;10.728;2023-04-15T07:24:59;48.60;;;22.77;;
70367;SDS011;57789;53.868;10.728;2023-04-15T07:27:26;49.20;;;26.13;;
70367;SDS011;57789;53.868;10.728;2023-04-15T07:29:52;53.00;;;24.10;;
70367;SDS011;57789;53.868;10.728;2023-04-15T07:32:18;41.40;;;21.67;;
70367;SDS011;57789;53.868;10.728;2023-04-15T07:34:44;49.03;;;23.60;;
70367;SDS011;57789;53.868;10.728;2023-04-15T07:37:10;43.50;;;23.97;;
70367;SDS011;57789;53.868;10.728;2023-04-15T07:39:36;46.07;;;24.40;;
70367;SDS011;57789;53.868;10.728;2023-04-15T07:42:02;55.67;;;23.20;;
70367;SDS011;57789;53.868;10.728;2023-04-15T07:44:28;43.87;;;24.20;;
70367;SDS011;57789;53.868;10.728;2023-04-15T07:46:54;39.57;;;21.10;;
70367;SDS011;57789;53.868;10.728;2023-04-15T07:49:20;44.00;;;22.93;;
70367;SDS011;57789;53.868;10.728;2023-04-15T07:51:47;36.87;;;21.37;;
70367;SDS011;57789;53.868;10.728;2023-04-15T07:54:13;38.80;;;20.33;;
70367;SDS011;57789;53.868;10.728;2023-04-15T07:56:39;47.03;;;23.87;;
70367;SDS011;57789;53.868;10.728;2023-04-15T07:59:05;43.63;;;22.53;;
70367;SDS011;57789;53.868;10.728;2023-04-15T08:01:31;38.60;;;20.00;;
70367;SDS011;57789;53.868;10.728;2023-04-15T08:03:57;42.70;;;22.17;;
70367;SDS011;57789;53.868;10.728;2023-04-15T08:06:23;42.53;;;23.40;;
70367;SDS011;57789;53.868;10.728;2023-04-15T08:08:49;40.77;;;21.57;;
70367;SDS011;57789;53.868;10.728;2023-04-15T08:11:15;44.23;;;22.00;;
70367;SDS011;57789;53.868;10.728;2023-04-15T08:13:41;42.67;;;23.07;;
70367;SDS011;57789;53.868;10.728;2023-04-15T08:18:49;43.97;;;22.33;;
70367;SDS011;57789;53.868;10.728;2023-04-15T08:21:17;41.67;;;21.70;;
70367;SDS011;57789;53.868;10.728;2023-04-15T08:23:43;47.13;;;22.43;;
70367;SDS011;57789;53.868;10.728;2023-04-15T08:26:10;36.90;;;20.73;;
70367;SDS011;57789;53.868;10.728;2023-04-15T08:28:37;34.00;;;21.10;;
70367;SDS011;57789;53.868;10.728;2023-04-15T08:31:06;37.47;;;21.20;;
70367;SDS011;57789;53.868;10.728;2023-04-15T08:33:33;40.67;;;20.50;;
70367;SDS011;57789;53.868;10.728;2023-04-15T08:35:59;41.90;;;23.60;;
70367;SDS011;57789;53.868;10.728;2023-04-15T08:38:24;44.17;;;20.43;;
70367;SDS011;57789;53.868;10.728;2023-04-15T08:40:50;46.17;;;22.80;;
70367;SDS011;57789;53.868;10.728;2023-04-15T08:46:12;40.73;;;21.00;;
70367;SDS011;57789;53.868;10.728;2023-04-15T08:48:38;38.13;;;21.03;;
70367;SDS011;57789;53.868;10.728;2023-04-15T08:51:05;34.17;;;21.07;;
70367;SDS011;57789;53.868;10.728;2023-04-15T08:53:32;30.67;;;20.40;;
70367;SDS011;57789;53.868;10.728;2023-04-15T08:55:59;30.30;;;20.43;;
70367;SDS011;57789;53.868;10.728;2023-04-15T08:58:30;37.27;;;21.50;;
70367;SDS011;57789;53.868;10.728;2023-04-15T09:00:56;35.07;;;19.00;;
70367;SDS011;57789;53.868;10.728;2023-04-15T09:03:23;31.43;;;19.60;;
70367;SDS011;57789;53.868;10.728;2023-04-15T09:05:49;30.73;;;18.47;;
70367;SDS011;57789;53.868;10.728;2023-04-15T09:08:16;35.50;;;19.80;;
70367;SDS011;57789;53.868;10.728;2023-04-15T09:10:41;31.00;;;18.20;;
70367;SDS011;57789;53.868;10.728;2023-04-15T09:13:07;32.43;;;19.47;;
70367;SDS011;57789;53.868;10.728;2023-04-15T09:15:33;38.13;;;21.60;;
70367;SDS011;57789;53.868;10.728;2023-04-15T09:18:03;27.00;;;17.20;;
70367;SDS011;57789;53.868;10.728;2023-04-15T09:20:29;31.23;;;18.87;;
70367;SDS011;57789;53.868;10.728;2023-04-15T09:23:13;31.90;;;17.53;;
70367;SDS011;57789;53.868;10.728;2023-04-15T09:25:39;29.43;;;17.97;;
70367;SDS011;57789;53.868;10.728;2023-04-15T09:28:08;27.33;;;17.73;;
70367;SDS011;57789;53.868;10.728;2023-04-15T09:30:35;28.97;;;19.43;;
70367;SDS011;57789;53.868;10.728;2023-04-15T09:33:01;33.43;;;19.50;;
70367;SDS011;57789;53.868;10.728;2023-04-15T09:35:35;30.80;;;18.33;;
70367;SDS011;57789;53.868;10.728;2023-04-15T09:38:02;33.80;;;18.00;;
70367;SDS011;57789;53.868;10.728;2023-04-15T09:40:35;31.60;;;18.73;;
70367;SDS011;57789;53.868;10.728;2023-04-15T09:43:05;26.20;;;17.50;;
70367;SDS011;57789;53.868;10.728;2023-04-15T09:45:33;29.87;;;17.90;;
70367;SDS011;57789;53.868;10.728;2023-04-15T09:50:48;27.07;;;16.97;;
70367;SDS011;57789;53.868;10.728;2023-04-15T09:53:15;25.83;;;16.70;;
70367;SDS011;57789;53.868;10.728;2023-04-15T09:55:48;31.20;;;18.77;;
70367;SDS011;57789;53.868;10.728;2023-04-15T10:00:48;27.07;;;15.40;;
70367;SDS011;57789;53.868;10.728;2023-04-15T10:03:22;22.10;;;15.60;;
70367;SDS011;57789;53.868;10.728;2023-04-15T10:05:49;21.63;;;14.50;;
70367;SDS011;57789;53.868;10.728;2023-04-15T10:08:18;21.07;;;15.07;;
70367;SDS011;57789;53.868;10.728;2023-04-15T10:10:51;24.67;;;14.60;;
70367;SDS011;57789;53.868;10.728;2023-04-15T10:13:22;22.57;;;14.70;;
70367;SDS011;57789;53.868;10.728;2023-04-15T10:15:50;17.50;;;13.33;;
70367;SDS011;57789;53.868;10.728;2023-04-15T10:18:31;20.87;;;14.33;;
70367;SDS011;57789;53.868;10.728;2023-04-15T10:20:59;21.83;;;14.43;;
70367;SDS011;57789;53.868;10.728;2023-04-15T10:23:26;26.80;;;15.20;;
70367;SDS011;57789;53.868;10.728;2023-04-15T10:25:52;23.63;;;14.20;;
70367;SDS011;57789;53.868;10.728;2023-04-15T10:28:19;23.43;;;14.00;;
70367;SDS011;57789;53.868;10.728;2023-04-15T10:30:47;23.93;;;15.70;;
70367;SDS011;57789;53.868;10.728;2023-04-15T10:33:14;27.47;;;16.97;;
70367;SDS011;57789;53.868;10.728;2023-04-15T10:35:44;26.73;;;16.10;;
70367;SDS011;57789;53.868;10.728;2023-04-15T10:46:23;25.07;;;16.67;;
70367;SDS011;57789;53.868;10.728;2023-04-15T10:48:50;25.37;;;15.83;;
70367;SDS011;57789;53.868;10.728;2023-04-15T10:51:25;27.83;;;18.33;;
70367;SDS011;57789;53.868;10.728;2023-04-15T10:53:55;25.70;;;16.20;;
70367;SDS011;57789;53.868;10.728;2023-04-15T10:56:22;29.80;;;17.83;;
70367;SDS011;57789;53.868;10.728;2023-04-15T10:58:47;27.70;;;17.77;;
70367;SDS011;57789;53.868;10.728;2023-04-15T11:01:13;24.00;;;16.03;;
70367;SDS011;57789;53.868;10.728;2023-04-15T11:03:39;27.60;;;16.53;;
70367;SDS011;57789;53.868;10.728;2023-04-15T11:06:07;29.00;;;18.37;;
70367;SDS011;57789;53.868;10.728;2023-04-15T11:11:43;28.43;;;18.10;;
70367;SDS011;57789;53.868;10.728;2023-04-15T11:14:28;32.90;;;19.40;;
70367;SDS011;57789;53.868;10.728;2023-04-15T11:16:54;35.60;;;21.57;;
70367;SDS011;57789;53.868;10.728;2023-04-15T11:19:20;33.90;;;20.10;;
70367;SDS011;57789;53.868;10.728;2023-04-15T11:21:46;30.40;;;19.23;;
70367;SDS011;57789;53.868;10.728;2023-04-15T11:24:22;36.63;;;21.30;;
70367;SDS011;57789;53.868;10.728;2023-04-15T11:26:56;35.43;;;21.97;;
70367;SDS011;57789;53.868;10.728;2023-04-15T11:29:27;31.57;;;18.53;;
70367;SDS011;57789;53.868;10.728;2023-04-15T11:32:03;30.17;;;20.63;;
70367;SDS011;57789;53.868;10.728;2023-04-15T11:34:31;28.33;;;19.40;;
70367;SDS011;57789;53.868;10.728;2023-04-15T11:36:56;31.27;;;20.60;;
70367;SDS011;57789;53.868;10.728;2023-04-15T11:39:22;26.27;;;19.20;;
70367;SDS011;57789;53.868;10.728;2023-04-15T11:41:48;33.97;;;20.30;;
70367;SDS011;57789;53.868;10.728;2023-04-15T11:44:17;35.47;;;20.07;;
70367;SDS011;57789;53.868;10.728;2023-04-15T11:46:43;30.17;;;19.73;;
70367;SDS011;57789;53.868;10.728;2023-04-15T11:49:09;29.97;;;19.73;;
70367;SDS011;57789;53.868;10.728;2023-04-15T11:51:35;32.90;;;20.10;;
70367;SDS011;57789;53.868;10.728;2023-04-15T11:54:01;32.37;;;19.63;;
70367;SDS011;57789;53.868;10.728;2023-04-15T11:56:27;34.73;;;19.43;;
70367;SDS011;57789;53.868;10.728;2023-04-15T11:58:56;28.00;;;18.50;;
70367;SDS011;57789;53.868;10.728;2023-04-15T12:01:30;30.00;;;21.17;;
70367;SDS011;57789;53.868;10.728;2023-04-15T12:03:56;29.00;;;19.97;;
70367;SDS011;57789;53.868;10.728;2023-04-15T12:06:24;33.33;;;21.33;;
70367;SDS011;57789;53.868;10.728;2023-04-15T12:17:03;28.00;;;20.03;;
70367;SDS011;57789;53.868;10.728;2023-04-15T12:19:36;30.10;;;19.53;;
70367;SDS011;57789;53.868;10.728;2023-04-15T12:22:04;29.33;;;19.33;;
70367;SDS011;57789;53.868;10.728;2023-04-15T12:24:33;34.60;;;21.10;;
70367;SDS011;57789;53.868;10.728;2023-04-15T12:27:12;31.10;;;20.20;;
70367;SDS011;57789;53.868;10.728;2023-04-15T12:29:39;31.53;;;20.80;;
70367;SDS011;57789;53.868;10.728;2023-04-15T12:34:33;28.13;;;20.10;;
70367;SDS011;57789;53.868;10.728;2023-04-15T12:37:01;33.80;;;20.70;;
70367;SDS011;57789;53.868;10.728;2023-04-15T12:39:37;26.30;;;18.37;;
70367;SDS011;57789;53.868;10.728;2023-04-15T12:42:04;29.90;;;19.90;;
70367;SDS011;57789;53.868;10.728;2023-04-15T12:44:30;32.70;;;18.93;;
70367;SDS011;57789;53.868;10.728;2023-04-15T12:46:56;26.10;;;18.60;;
70367;SDS011;57789;53.868;10.728;2023-04-15T12:49:22;25.83;;;18.77;;
70367;SDS011;57789;53.868;10.728;2023-04-15T12:51:49;24.83;;;18.67;;
70367;SDS011;57789;53.868;10.728;2023-04-15T12:54:19;27.97;;;19.07;;
70367;SDS011;57789;53.868;10.728;2023-04-15T12:56:46;33.77;;;19.87;;
70367;SDS011;57789;53.868;10.728;2023-04-15T12:59:14;33.03;;;19.07;;
70367;SDS011;57789;53.868;10.728;2023-04-15T13:01:42;23.13;;;18.57;;
70367;SDS011;57789;53.868;10.728;2023-04-15T13:04:08;23.40;;;17.70;;
70367;SDS011;57789;53.868;10.728;2023-04-15T13:06:34;22.37;;;17.43;;
70367;SDS011;57789;53.868;10.728;2023-04-15T13:08:59;23.47;;;16.90;;
70367;SDS011;57789;53.868;10.728;2023-04-15T13:11:26;24.40;;;18.53;;
70367;SDS011;57789;53.868;10.728;2023-04-15T13:13:54;29.03;;;17.60;;
70367;SDS011;57789;53.868;10.728;2023-04-15T13:16:21;27.80;;;17.20;;
70367;SDS011;57789;53.868;10.728;2023-04-15T13:18:50;25.73;;;17.23;;
70367;SDS011;57789;53.868;10.728;2023-04-15T13:21:15;29.83;;;17.07;;
70367;SDS011;57789;53.868;10.728;2023-04-15T13:23:42;23.40;;;16.13;;
70367;SDS011;57789;53.868;10.728;2023-04-15T13:26:08;24.17;;;15.33;;
70367;SDS011;57789;53.868;10.728;2023-04-15T13:28:34;22.83;;;15.83;;
70367;SDS011;57789;53.868;10.728;2023-04-15T13:31:00;28.43;;;17.13;;
70367;SDS011;57789;53.868;10.728;2023-04-15T13:33:26;25.27;;;15.33;;
70367;SDS011;57789;53.868;10.728;2023-04-15T13:35:52;24.10;;;16.40;;
70367;SDS011;57789;53.868;10.728;2023-04-15T13:38:17;22.80;;;16.23;;
70367;SDS011;57789;53.868;10.728;2023-04-15T13:40:43;20.40;;;15.43;;
70367;SDS011;57789;53.868;10.728;2023-04-15T13:43:09;21.73;;;15.17;;
70367;SDS011;57789;53.868;10.728;2023-04-15T13:45:35;22.87;;;15.27;;
70367;SDS011;57789;53.868;10.728;2023-04-15T13:48:01;22.37;;;13.80;;
70367;SDS011;57789;53.868;10.728;2023-04-15T13:50:27;18.90;;;14.67;;
70367;SDS011;57789;53.868;10.728;2023-04-15T13:52:53;21.07;;;15.40;;
70367;SDS011;57789;53.868;10.728;2023-04-15T13:55:19;32.57;;;14.13;;
70367;SDS011;57789;53.868;10.728;2023-04-15T13:57:45;24.53;;;14.30;;
70367;SDS011;57789;53.868;10.728;2023-04-15T14:00:11;20.43;;;14.03;;
70367;SDS011;57789;53.868;10.728;2023-04-15T14:02:38;18.47;;;13.20;;
70367;SDS011;57789;53.868;10.728;2023-04-15T14:05:04;20.27;;;14.40;;
70367;SDS011;57789;53.868;10.728;2023-04-15T14:07:30;23.20;;;13.60;;
70367;SDS011;57789;53.868;10.728;2023-04-15T14:09:56;20.70;;;14.77;;
70367;SDS011;57789;53.868;10.728;2023-04-15T14:12:22;19.83;;;14.10;;
70367;SDS011;57789;53.868;10.728;2023-04-15T14:14:47;17.27;;;13.87;;
70367;SDS011;57789;53.868;10.728;2023-04-15T14:17:13;20.90;;;13.73;;
70367;SDS011;57789;53.868;10.728;2023-04-15T14:19:39;23.43;;;14.37;;
70367;SDS011;57789;53.868;10.728;2023-04-15T14:22:04;26.77;;;15.30;;
70367;SDS011;57789;53.868;10.728;2023-04-15T14:24:30;22.00;;;14.50;;
70367;SDS011;57789;53.868;10.728;2023-04-15T14:26:57;25.20;;;16.10;;
70367;SDS011;57789;53.868;10.728;2023-04-15T14:29:23;24.87;;;14.60;;
70367;SDS011;57789;53.868;10.728;2023-04-15T14:31:48;17.43;;;13.77;;
70367;SDS011;57789;53.868;10.728;2023-04-15T14:34:15;26.27;;;15.40;;
70367;SDS011;57789;53.868;10.728;2023-04-15T14:36:41;20.23;;;14.27;;
70367;SDS011;57789;53.868;10.728;2023-04-15T14:39:07;19.20;;;14.37;;
70367;SDS011;57789;53.868;10.728;2023-04-15T14:41:33;20.80;;;14.50;;